sensor_id;sensor_type;location;lat;lon;timestamp;temperature;humidity
23629;DHT22;11991;57.150;-2.134;2024-02-23T00:00:41;3.80;99.90
23629;DHT22;11991;57.150;-2.134;2024-02-23T00:03:08;3.80;99.90
23629;DHT22;11991;57.150;-2.134;2024-02-23T00:05:37;3.80;99.90
23629;DHT22;11991;57.150;-2.134;2024-02-23T00:08:06;3.80;99.90
23629;DHT22;11991;57.150;-2.134;2024-02-23T00:10:33;3.70;99.90
23629;DHT22;11991;57.150;-2.134;2024-02-23T00:13:01;3.70;99.90
23629;DHT22;11991;57.150;-2.134;2024-02-23T00:15:28;3.70;99.90
23629;DHT22;11991;57.150;-2.134;2024-02-23T00:17:55;3.70;99.90
23629;DHT22;11991;57.150;-2.134;2024-02-23T00:20:22;3.70;99.90
23629;DHT22;11991;57.150;-2.134;2024-02-23T00:22:50;3.70;99.90
23629;DHT22;11991;57.150;-2.134;2024-02-23T00:25:17;3.70;99.90
23629;DHT22;11991;57.150;-2.134;2024-02-23T00:27:45;3.60;99.90
23629;DHT22;11991;57.150;-2.134;2024-02-23T00:30:14;3.60;99.90
23629;DHT22;11991;57.150;-2.134;2024-02-23T00:32:41;3.60;99.90
23629;DHT22;11991;57.150;-2.134;2024-02-23T00:35:08;3.70;99.90
23629;DHT22;11991;57.150;-2.134;2024-02-23T00:37:35;3.70;99.90
23629;DHT22;11991;57.150;-2.134;2024-02-23T00:40:03;3.60;99.90
23629;DHT22;11991;57.150;-2.134;2024-02-23T00:42:31;3.60;99.90
23629;DHT22;11991;57.150;-2.134;2024-02-23T00:44:58;3.60;99.90
23629;DHT22;11991;57.150;-2.134;2024-02-23T00:47:26;3.60;99.90
23629;DHT22;11991;57.150;-2.134;2024-02-23T00:49:54;3.50;99.90
23629;DHT22;11991;57.150;-2.134;2024-02-23T00:52:21;3.50;99.90
23629;DHT22;11991;57.150;-2.134;2024-02-23T00:54:48;3.50;99.90
23629;DHT22;11991;57.150;-2.134;2024-02-23T00:57:16;3.50;99.90
23629;DHT22;11991;57.150;-2.134;2024-02-23T00:59:45;3.50;99.90
23629;DHT22;11991;57.150;-2.134;2024-02-23T01:02:14;3.50;99.90
23629;DHT22;11991;57.150;-2.134;2024-02-23T01:04:41;3.50;99.90
23629;DHT22;11991;57.150;-2.134;2024-02-23T01:07:08;3.50;99.90
23629;DHT22;11991;57.150;-2.134;2024-02-23T01:09:35;3.50;99.90
23629;DHT22;11991;57.150;-2.134;2024-02-23T01:12:02;3.50;99.90
23629;DHT22;11991;57.150;-2.134;2024-02-23T01:14:30;3.50;99.90
23629;DHT22;11991;57.150;-2.134;2024-02-23T01:16:57;3.50;99.90
23629;DHT22;11991;57.150;-2.134;2024-02-23T01:19:24;3.50;99.90
23629;DHT22;11991;57.150;-2.134;2024-02-23T01:21:51;3.60;99.90
23629;DHT22;11991;57.150;-2.134;2024-02-23T01:24:27;3.50;99.90
23629;DHT22;11991;57.150;-2.134;2024-02-23T01:26:56;3.60;99.90
23629;DHT22;11991;57.150;-2.134;2024-02-23T01:29:26;3.60;99.90
23629;DHT22;11991;57.150;-2.134;2024-02-23T01:31:53;3.60;99.90
23629;DHT22;11991;57.150;-2.134;2024-02-23T01:34:23;3.70;99.90
23629;DHT22;11991;57.150;-2.134;2024-02-23T01:36:51;3.60;99.90
23629;DHT22;11991;57.150;-2.134;2024-02-23T01:39:18;3.60;99.90
23629;DHT22;11991;57.150;-2.134;2024-02-23T01:41:45;3.60;99.90
23629;DHT22;11991;57.150;-2.134;2024-02-23T01:44:12;3.60;99.90
23629;DHT22;11991;57.150;-2.134;2024-02-23T01:46:42;3.60;99.90
23629;DHT22;11991;57.150;-2.134;2024-02-23T01:49:09;3.60;99.90
23629;DHT22;11991;57.150;-2.134;2024-02-23T01:51:37;3.60;99.90
23629;DHT22;11991;57.150;-2.134;2024-02-23T01:54:04;3.60;99.90
23629;DHT22;11991;57.150;-2.134;2024-02-23T01:56:32;3.60;99.90
23629;DHT22;11991;57.150;-2.134;2024-02-23T01:59:01;3.60;99.90
23629;DHT22;11991;57.150;-2.134;2024-02-23T02:01:30;3.60;99.90
23629;DHT22;11991;57.150;-2.134;2024-02-23T02:03:58;3.60;99.90
23629;DHT22;11991;57.150;-2.134;2024-02-23T02:06:26;3.70;99.90
23629;DHT22;11991;57.150;-2.134;2024-02-23T02:08:53;3.60;99.90
23629;DHT22;11991;57.150;-2.134;2024-02-23T02:11:21;3.70;99.90
23629;DHT22;11991;57.150;-2.134;2024-02-23T02:13:48;3.70;99.90
23629;DHT22;11991;57.150;-2.134;2024-02-23T02:16:15;3.70;99.90
23629;DHT22;11991;57.150;-2.134;2024-02-23T02:18:43;3.70;99.90
23629;DHT22;11991;57.150;-2.134;2024-02-23T02:21:11;3.60;99.90
23629;DHT22;11991;57.150;-2.134;2024-02-23T02:23:39;3.60;99.90
23629;DHT22;11991;57.150;-2.134;2024-02-23T02:26:06;3.60;99.90
23629;DHT22;11991;57.150;-2.134;2024-02-23T02:28:33;3.60;99.90
23629;DHT22;11991;57.150;-2.134;2024-02-23T02:31:01;3.60;99.90
23629;DHT22;11991;57.150;-2.134;2024-02-23T02:33:28;3.60;99.90
23629;DHT22;11991;57.150;-2.134;2024-02-23T02:35:55;3.70;99.90
23629;DHT22;11991;57.150;-2.134;2024-02-23T02:38:23;3.70;99.90
23629;DHT22;11991;57.150;-2.134;2024-02-23T02:40:50;3.80;99.90
23629;DHT22;11991;57.150;-2.134;2024-02-23T02:43:17;3.80;99.90
23629;DHT22;11991;57.150;-2.134;2024-02-23T02:45:45;3.80;99.90
23629;DHT22;11991;57.150;-2.134;2024-02-23T02:48:12;3.80;99.90
23629;DHT22;11991;57.150;-2.134;2024-02-23T02:50:39;3.80;99.90
23629;DHT22;11991;57.150;-2.134;2024-02-23T02:53:06;3.80;99.90
23629;DHT22;11991;57.150;-2.134;2024-02-23T02:55:34;3.80;99.90
23629;DHT22;11991;57.150;-2.134;2024-02-23T02:58:01;3.80;99.90
23629;DHT22;11991;57.150;-2.134;2024-02-23T03:00:28;3.70;99.90
23629;DHT22;11991;57.150;-2.134;2024-02-23T03:02:57;3.60;99.90
23629;DHT22;11991;57.150;-2.134;2024-02-23T03:05:25;3.60;99.90
23629;DHT22;11991;57.150;-2.134;2024-02-23T03:07:52;3.60;99.90
23629;DHT22;11991;57.150;-2.134;2024-02-23T03:10:19;3.50;99.90
23629;DHT22;11991;57.150;-2.134;2024-02-23T03:12:46;3.50;99.90
23629;DHT22;11991;57.150;-2.134;2024-02-23T03:15:15;3.50;99.90
23629;DHT22;11991;57.150;-2.134;2024-02-23T03:17:42;3.50;99.90
23629;DHT22;11991;57.150;-2.134;2024-02-23T03:20:10;3.50;99.90
23629;DHT22;11991;57.150;-2.134;2024-02-23T03:22:38;3.60;99.90
23629;DHT22;11991;57.150;-2.134;2024-02-23T03:25:06;3.60;99.90
23629;DHT22;11991;57.150;-2.134;2024-02-23T03:27:37;3.60;99.90
23629;DHT22;11991;57.150;-2.134;2024-02-23T03:30:05;3.60;99.90
23629;DHT22;11991;57.150;-2.134;2024-02-23T03:32:32;3.60;99.90
23629;DHT22;11991;57.150;-2.134;2024-02-23T03:35:04;3.60;99.90
23629;DHT22;11991;57.150;-2.134;2024-02-23T03:37:32;3.50;99.90
23629;DHT22;11991;57.150;-2.134;2024-02-23T03:39:59;3.50;99.90
23629;DHT22;11991;57.150;-2.134;2024-02-23T03:42:27;3.50;99.90
23629;DHT22;11991;57.150;-2.134;2024-02-23T03:44:55;3.40;99.90
23629;DHT22;11991;57.150;-2.134;2024-02-23T03:47:22;3.40;99.90
23629;DHT22;11991;57.150;-2.134;2024-02-23T03:49:49;3.40;99.90
23629;DHT22;11991;57.150;-2.134;2024-02-23T03:52:16;3.30;99.90
23629;DHT22;11991;57.150;-2.134;2024-02-23T03:54:43;3.30;99.90
23629;DHT22;11991;57.150;-2.134;2024-02-23T03:57:11;3.30;99.90
23629;DHT22;11991;57.150;-2.134;2024-02-23T03:59:38;3.40;99.90
23629;DHT22;11991;57.150;-2.134;2024-02-23T04:02:05;3.40;99.90
23629;DHT22;11991;57.150;-2.134;2024-02-23T04:04:33;3.30;99.90
23629;DHT22;11991;57.150;-2.134;2024-02-23T04:07:00;3.30;99.90
23629;DHT22;11991;57.150;-2.134;2024-02-23T04:09:27;3.30;99.90
23629;DHT22;11991;57.150;-2.134;2024-02-23T04:11:55;3.30;99.90
23629;DHT22;11991;57.150;-2.134;2024-02-23T04:14:22;3.30;99.90
23629;DHT22;11991;57.150;-2.134;2024-02-23T04:16:50;3.30;99.90
23629;DHT22;11991;57.150;-2.134;2024-02-23T04:19:17;3.30;99.90
23629;DHT22;11991;57.150;-2.134;2024-02-23T04:21:45;3.30;99.90
23629;DHT22;11991;57.150;-2.134;2024-02-23T04:24:13;3.30;99.90
23629;DHT22;11991;57.150;-2.134;2024-02-23T04:26:40;3.30;99.90
23629;DHT22;11991;57.150;-2.134;2024-02-23T04:29:07;3.30;99.90
23629;DHT22;11991;57.150;-2.134;2024-02-23T04:31:37;3.30;99.90
23629;DHT22;11991;57.150;-2.134;2024-02-23T04:34:04;3.30;99.90
23629;DHT22;11991;57.150;-2.134;2024-02-23T04:36:31;3.30;99.90
23629;DHT22;11991;57.150;-2.134;2024-02-23T04:38:59;3.30;99.90
23629;DHT22;11991;57.150;-2.134;2024-02-23T04:41:26;3.30;99.90
23629;DHT22;11991;57.150;-2.134;2024-02-23T04:43:53;3.30;99.90
23629;DHT22;11991;57.150;-2.134;2024-02-23T04:46:30;3.30;99.90
23629;DHT22;11991;57.150;-2.134;2024-02-23T04:48:57;3.20;99.90
23629;DHT22;11991;57.150;-2.134;2024-02-23T04:51:24;3.20;99.90
23629;DHT22;11991;57.150;-2.134;2024-02-23T04:53:51;3.30;99.90
23629;DHT22;11991;57.150;-2.134;2024-02-23T04:56:19;3.30;99.90
23629;DHT22;11991;57.150;-2.134;2024-02-23T04:58:50;3.20;99.90
23629;DHT22;11991;57.150;-2.134;2024-02-23T05:01:17;3.20;99.90
23629;DHT22;11991;57.150;-2.134;2024-02-23T05:03:45;3.10;99.90
23629;DHT22;11991;57.150;-2.134;2024-02-23T05:06:12;3.10;99.90
23629;DHT22;11991;57.150;-2.134;2024-02-23T05:08:42;3.10;99.90
23629;DHT22;11991;57.150;-2.134;2024-02-23T05:11:09;3.10;99.90
23629;DHT22;11991;57.150;-2.134;2024-02-23T05:13:38;3.10;99.90
23629;DHT22;11991;57.150;-2.134;2024-02-23T05:16:08;3.10;99.90
23629;DHT22;11991;57.150;-2.134;2024-02-23T05:18:35;3.00;99.90
23629;DHT22;11991;57.150;-2.134;2024-02-23T05:21:03;3.00;99.90
23629;DHT22;11991;57.150;-2.134;2024-02-23T05:23:30;3.00;99.90
23629;DHT22;11991;57.150;-2.134;2024-02-23T05:25:57;3.00;99.90
23629;DHT22;11991;57.150;-2.134;2024-02-23T05:28:24;3.00;99.90
23629;DHT22;11991;57.150;-2.134;2024-02-23T05:30:52;3.00;99.90
23629;DHT22;11991;57.150;-2.134;2024-02-23T05:33:19;3.00;99.90
23629;DHT22;11991;57.150;-2.134;2024-02-23T05:35:47;3.00;99.90
23629;DHT22;11991;57.150;-2.134;2024-02-23T05:38:17;3.00;99.90
23629;DHT22;11991;57.150;-2.134;2024-02-23T05:40:45;3.00;99.90
23629;DHT22;11991;57.150;-2.134;2024-02-23T05:43:12;3.00;99.90
23629;DHT22;11991;57.150;-2.134;2024-02-23T05:45:40;3.00;99.90
23629;DHT22;11991;57.150;-2.134;2024-02-23T05:48:07;2.90;99.90
23629;DHT22;11991;57.150;-2.134;2024-02-23T05:50:35;3.00;99.90
23629;DHT22;11991;57.150;-2.134;2024-02-23T05:53:02;2.90;99.90
23629;DHT22;11991;57.150;-2.134;2024-02-23T05:55:31;2.80;99.90
23629;DHT22;11991;57.150;-2.134;2024-02-23T05:57:59;2.80;99.90
23629;DHT22;11991;57.150;-2.134;2024-02-23T06:00:26;2.70;99.90
23629;DHT22;11991;57.150;-2.134;2024-02-23T06:02:53;2.70;99.90
23629;DHT22;11991;57.150;-2.134;2024-02-23T06:05:20;2.70;99.90
23629;DHT22;11991;57.150;-2.134;2024-02-23T06:07:47;2.70;99.90
23629;DHT22;11991;57.150;-2.134;2024-02-23T06:10:15;2.70;99.90
23629;DHT22;11991;57.150;-2.134;2024-02-23T06:12:42;2.60;99.90
23629;DHT22;11991;57.150;-2.134;2024-02-23T06:15:09;2.60;99.90
23629;DHT22;11991;57.150;-2.134;2024-02-23T06:17:37;2.60;99.90
23629;DHT22;11991;57.150;-2.134;2024-02-23T06:20:06;2.50;99.90
23629;DHT22;11991;57.150;-2.134;2024-02-23T06:22:35;2.50;99.90
23629;DHT22;11991;57.150;-2.134;2024-02-23T06:25:02;2.50;99.90
23629;DHT22;11991;57.150;-2.134;2024-02-23T06:27:29;2.50;99.90
23629;DHT22;11991;57.150;-2.134;2024-02-23T06:29:57;2.40;99.90
23629;DHT22;11991;57.150;-2.134;2024-02-23T06:32:24;2.40;99.90
23629;DHT22;11991;57.150;-2.134;2024-02-23T06:34:51;2.40;99.90
23629;DHT22;11991;57.150;-2.134;2024-02-23T06:37:18;2.40;99.90
23629;DHT22;11991;57.150;-2.134;2024-02-23T06:39:45;2.40;99.90
23629;DHT22;11991;57.150;-2.134;2024-02-23T06:42:18;2.40;99.90
23629;DHT22;11991;57.150;-2.134;2024-02-23T06:44:45;2.40;99.90
23629;DHT22;11991;57.150;-2.134;2024-02-23T06:47:12;2.40;99.90
23629;DHT22;11991;57.150;-2.134;2024-02-23T06:49:43;2.40;99.90
23629;DHT22;11991;57.150;-2.134;2024-02-23T06:52:12;2.30;99.90
23629;DHT22;11991;57.150;-2.134;2024-02-23T06:54:39;2.30;99.90
23629;DHT22;11991;57.150;-2.134;2024-02-23T06:57:06;2.30;99.90
23629;DHT22;11991;57.150;-2.134;2024-02-23T06:59:37;2.30;99.90
23629;DHT22;11991;57.150;-2.134;2024-02-23T07:02:04;2.30;99.90
23629;DHT22;11991;57.150;-2.134;2024-02-23T07:04:32;2.30;99.90
23629;DHT22;11991;57.150;-2.134;2024-02-23T07:07:00;2.30;99.90
23629;DHT22;11991;57.150;-2.134;2024-02-23T07:09:34;2.30;99.90
23629;DHT22;11991;57.150;-2.134;2024-02-23T07:12:01;2.30;99.90
23629;DHT22;11991;57.150;-2.134;2024-02-23T07:14:28;2.30;99.90
23629;DHT22;11991;57.150;-2.134;2024-02-23T07:16:56;2.30;99.90
23629;DHT22;11991;57.150;-2.134;2024-02-23T07:19:23;2.30;99.90
23629;DHT22;11991;57.150;-2.134;2024-02-23T07:21:50;2.30;99.90
23629;DHT22;11991;57.150;-2.134;2024-02-23T07:24:18;2.30;99.90
23629;DHT22;11991;57.150;-2.134;2024-02-23T07:26:45;2.30;99.90
23629;DHT22;11991;57.150;-2.134;2024-02-23T07:29:12;2.30;99.90
23629;DHT22;11991;57.150;-2.134;2024-02-23T07:31:42;2.30;99.90
23629;DHT22;11991;57.150;-2.134;2024-02-23T07:34:09;2.30;99.90
23629;DHT22;11991;57.150;-2.134;2024-02-23T07:36:37;2.40;99.90
23629;DHT22;11991;57.150;-2.134;2024-02-23T07:39:04;2.40;99.90
23629;DHT22;11991;57.150;-2.134;2024-02-23T07:41:31;2.50;99.90
23629;DHT22;11991;57.150;-2.134;2024-02-23T07:43:58;2.50;99.90
23629;DHT22;11991;57.150;-2.134;2024-02-23T07:46:26;2.60;99.90
23629;DHT22;11991;57.150;-2.134;2024-02-23T07:48:55;2.60;99.90
23629;DHT22;11991;57.150;-2.134;2024-02-23T07:51:22;2.70;99.90
23629;DHT22;11991;57.150;-2.134;2024-02-23T07:53:49;2.70;99.90
23629;DHT22;11991;57.150;-2.134;2024-02-23T07:56:17;2.80;99.90
23629;DHT22;11991;57.150;-2.134;2024-02-23T07:58:44;2.80;99.90
23629;DHT22;11991;57.150;-2.134;2024-02-23T08:01:11;2.70;99.90
23629;DHT22;11991;57.150;-2.134;2024-02-23T08:03:39;2.70;99.90
23629;DHT22;11991;57.150;-2.134;2024-02-23T08:06:09;2.70;99.90
23629;DHT22;11991;57.150;-2.134;2024-02-23T08:08:36;2.60;99.90
23629;DHT22;11991;57.150;-2.134;2024-02-23T08:11:04;2.60;99.90
23629;DHT22;11991;57.150;-2.134;2024-02-23T08:13:31;2.60;99.90
23629;DHT22;11991;57.150;-2.134;2024-02-23T08:15:58;2.60;99.90
23629;DHT22;11991;57.150;-2.134;2024-02-23T08:18:26;2.50;99.90
23629;DHT22;11991;57.150;-2.134;2024-02-23T08:20:54;2.60;99.90
23629;DHT22;11991;57.150;-2.134;2024-02-23T08:23:21;2.70;99.90
23629;DHT22;11991;57.150;-2.134;2024-02-23T08:25:50;2.70;99.90
23629;DHT22;11991;57.150;-2.134;2024-02-23T08:28:17;2.80;99.90
23629;DHT22;11991;57.150;-2.134;2024-02-23T08:30:44;2.90;99.90
23629;DHT22;11991;57.150;-2.134;2024-02-23T08:33:12;3.10;99.90
23629;DHT22;11991;57.150;-2.134;2024-02-23T08:35:39;3.20;99.90
23629;DHT22;11991;57.150;-2.134;2024-02-23T08:38:07;3.20;99.90
23629;DHT22;11991;57.150;-2.134;2024-02-23T08:40:34;3.40;99.90
23629;DHT22;11991;57.150;-2.134;2024-02-23T08:43:02;3.40;99.90
23629;DHT22;11991;57.150;-2.134;2024-02-23T08:45:30;3.50;99.90
23629;DHT22;11991;57.150;-2.134;2024-02-23T08:47:57;3.50;99.90
23629;DHT22;11991;57.150;-2.134;2024-02-23T08:50:24;3.50;99.90
23629;DHT22;11991;57.150;-2.134;2024-02-23T08:52:52;3.60;99.90
23629;DHT22;11991;57.150;-2.134;2024-02-23T08:55:19;3.60;99.90
23629;DHT22;11991;57.150;-2.134;2024-02-23T08:57:46;3.60;99.90
23629;DHT22;11991;57.150;-2.134;2024-02-23T09:00:14;3.70;99.90
23629;DHT22;11991;57.150;-2.134;2024-02-23T09:02:44;3.70;99.90
23629;DHT22;11991;57.150;-2.134;2024-02-23T09:05:11;3.80;99.90
23629;DHT22;11991;57.150;-2.134;2024-02-23T09:07:39;3.80;99.90
23629;DHT22;11991;57.150;-2.134;2024-02-23T09:10:07;3.90;99.90
23629;DHT22;11991;57.150;-2.134;2024-02-23T09:12:34;3.90;99.90
23629;DHT22;11991;57.150;-2.134;2024-02-23T09:15:01;4.00;99.90
23629;DHT22;11991;57.150;-2.134;2024-02-23T09:17:29;4.00;99.90
23629;DHT22;11991;57.150;-2.134;2024-02-23T09:19:56;4.00;99.90
23629;DHT22;11991;57.150;-2.134;2024-02-23T09:22:24;4.10;99.90
23629;DHT22;11991;57.150;-2.134;2024-02-23T09:24:51;4.10;99.90
23629;DHT22;11991;57.150;-2.134;2024-02-23T09:27:20;4.10;99.90
23629;DHT22;11991;57.150;-2.134;2024-02-23T09:29:48;4.10;99.90
23629;DHT22;11991;57.150;-2.134;2024-02-23T09:32:15;4.20;99.90
23629;DHT22;11991;57.150;-2.134;2024-02-23T09:34:42;4.20;99.90
23629;DHT22;11991;57.150;-2.134;2024-02-23T09:37:10;4.30;99.90
23629;DHT22;11991;57.150;-2.134;2024-02-23T09:39:37;4.30;99.90
23629;DHT22;11991;57.150;-2.134;2024-02-23T09:42:08;4.30;99.90
23629;DHT22;11991;57.150;-2.134;2024-02-23T09:44:37;4.40;99.90
23629;DHT22;11991;57.150;-2.134;2024-02-23T09:47:05;4.40;99.90
23629;DHT22;11991;57.150;-2.134;2024-02-23T09:49:40;4.40;99.90
23629;DHT22;11991;57.150;-2.134;2024-02-23T09:52:08;4.50;99.90
23629;DHT22;11991;57.150;-2.134;2024-02-23T09:54:38;4.60;99.90
23629;DHT22;11991;57.150;-2.134;2024-02-23T09:57:08;4.60;99.90
23629;DHT22;11991;57.150;-2.134;2024-02-23T09:59:36;4.70;99.90
23629;DHT22;11991;57.150;-2.134;2024-02-23T10:02:08;4.80;99.90
23629;DHT22;11991;57.150;-2.134;2024-02-23T10:04:39;4.80;99.90
23629;DHT22;11991;57.150;-2.134;2024-02-23T10:07:07;4.90;99.90
23629;DHT22;11991;57.150;-2.134;2024-02-23T10:09:35;4.90;99.90
23629;DHT22;11991;57.150;-2.134;2024-02-23T10:12:03;5.00;99.90
23629;DHT22;11991;57.150;-2.134;2024-02-23T10:14:30;5.00;99.90
23629;DHT22;11991;57.150;-2.134;2024-02-23T10:16:58;5.10;99.90
23629;DHT22;11991;57.150;-2.134;2024-02-23T10:19:26;5.20;99.90
23629;DHT22;11991;57.150;-2.134;2024-02-23T10:21:56;5.20;99.90
23629;DHT22;11991;57.150;-2.134;2024-02-23T10:24:23;5.30;99.90
23629;DHT22;11991;57.150;-2.134;2024-02-23T10:26:53;5.30;99.90
23629;DHT22;11991;57.150;-2.134;2024-02-23T10:29:23;5.40;99.90
23629;DHT22;11991;57.150;-2.134;2024-02-23T10:31:51;5.40;99.90
23629;DHT22;11991;57.150;-2.134;2024-02-23T10:34:20;5.40;99.90
23629;DHT22;11991;57.150;-2.134;2024-02-23T10:36:47;5.50;99.90
23629;DHT22;11991;57.150;-2.134;2024-02-23T10:39:18;5.50;99.90
23629;DHT22;11991;57.150;-2.134;2024-02-23T10:42:07;5.60;99.90
23629;DHT22;11991;57.150;-2.134;2024-02-23T10:44:36;5.70;99.90
23629;DHT22;11991;57.150;-2.134;2024-02-23T10:47:04;5.80;99.90
23629;DHT22;11991;57.150;-2.134;2024-02-23T10:49:33;5.80;99.90
23629;DHT22;11991;57.150;-2.134;2024-02-23T10:52:01;5.90;99.90
23629;DHT22;11991;57.150;-2.134;2024-02-23T10:54:31;5.90;99.90
23629;DHT22;11991;57.150;-2.134;2024-02-23T10:56:58;6.00;99.90
23629;DHT22;11991;57.150;-2.134;2024-02-23T10:59:26;6.00;99.90
23629;DHT22;11991;57.150;-2.134;2024-02-23T11:01:54;6.00;99.90
23629;DHT22;11991;57.150;-2.134;2024-02-23T11:04:27;6.00;99.90
23629;DHT22;11991;57.150;-2.134;2024-02-23T11:06:55;6.10;99.90
23629;DHT22;11991;57.150;-2.134;2024-02-23T11:09:26;6.10;99.90
23629;DHT22;11991;57.150;-2.134;2024-02-23T11:11:56;6.20;99.90
23629;DHT22;11991;57.150;-2.134;2024-02-23T11:14:31;6.20;99.90
23629;DHT22;11991;57.150;-2.134;2024-02-23T11:17:03;6.30;99.90
23629;DHT22;11991;57.150;-2.134;2024-02-23T11:19:35;6.30;99.90
23629;DHT22;11991;57.150;-2.134;2024-02-23T11:22:04;6.40;99.90
23629;DHT22;11991;57.150;-2.134;2024-02-23T11:24:34;6.40;99.90
23629;DHT22;11991;57.150;-2.134;2024-02-23T11:27:02;6.50;99.90
23629;DHT22;11991;57.150;-2.134;2024-02-23T11:29:38;6.50;99.90
23629;DHT22;11991;57.150;-2.134;2024-02-23T11:32:14;6.60;99.90
23629;DHT22;11991;57.150;-2.134;2024-02-23T11:34:41;6.70;99.90
23629;DHT22;11991;57.150;-2.134;2024-02-23T11:37:12;6.70;99.90
23629;DHT22;11991;57.150;-2.134;2024-02-23T11:39:42;6.80;99.90
23629;DHT22;11991;57.150;-2.134;2024-02-23T11:42:09;6.80;99.90
23629;DHT22;11991;57.150;-2.134;2024-02-23T11:44:36;6.90;99.90
23629;DHT22;11991;57.150;-2.134;2024-02-23T11:47:04;6.90;99.90
23629;DHT22;11991;57.150;-2.134;2024-02-23T11:49:32;7.10;99.90
23629;DHT22;11991;57.150;-2.134;2024-02-23T11:52:00;7.20;99.90
23629;DHT22;11991;57.150;-2.134;2024-02-23T11:54:27;7.30;99.90
23629;DHT22;11991;57.150;-2.134;2024-02-23T11:56:55;7.30;99.90
23629;DHT22;11991;57.150;-2.134;2024-02-23T11:59:23;7.30;99.90
23629;DHT22;11991;57.150;-2.134;2024-02-23T12:01:51;7.20;99.90
23629;DHT22;11991;57.150;-2.134;2024-02-23T12:04:19;7.20;99.90
23629;DHT22;11991;57.150;-2.134;2024-02-23T12:06:47;7.20;99.90
23629;DHT22;11991;57.150;-2.134;2024-02-23T12:09:14;7.20;99.90
23629;DHT22;11991;57.150;-2.134;2024-02-23T12:11:42;7.10;99.90
23629;DHT22;11991;57.150;-2.134;2024-02-23T12:14:10;7.10;99.90
23629;DHT22;11991;57.150;-2.134;2024-02-23T12:16:40;7.10;99.90
23629;DHT22;11991;57.150;-2.134;2024-02-23T12:19:08;7.10;99.90
23629;DHT22;11991;57.150;-2.134;2024-02-23T12:21:35;7.10;99.90
23629;DHT22;11991;57.150;-2.134;2024-02-23T12:24:06;7.20;99.90
23629;DHT22;11991;57.150;-2.134;2024-02-23T12:26:36;7.20;99.90
23629;DHT22;11991;57.150;-2.134;2024-02-23T12:29:05;7.30;99.90
23629;DHT22;11991;57.150;-2.134;2024-02-23T12:31:32;7.30;99.90
23629;DHT22;11991;57.150;-2.134;2024-02-23T12:34:00;7.40;99.90
23629;DHT22;11991;57.150;-2.134;2024-02-23T12:36:28;7.50;99.90
23629;DHT22;11991;57.150;-2.134;2024-02-23T12:38:55;7.50;99.90
23629;DHT22;11991;57.150;-2.134;2024-02-23T12:41:23;7.50;99.90
23629;DHT22;11991;57.150;-2.134;2024-02-23T12:43:50;7.50;99.90
23629;DHT22;11991;57.150;-2.134;2024-02-23T12:46:17;7.50;99.90
23629;DHT22;11991;57.150;-2.134;2024-02-23T12:48:44;7.60;99.90
23629;DHT22;11991;57.150;-2.134;2024-02-23T12:51:12;7.60;99.90
23629;DHT22;11991;57.150;-2.134;2024-02-23T12:53:40;7.60;99.90
23629;DHT22;11991;57.150;-2.134;2024-02-23T12:56:10;7.60;99.90
23629;DHT22;11991;57.150;-2.134;2024-02-23T12:58:41;7.60;99.90
23629;DHT22;11991;57.150;-2.134;2024-02-23T13:01:11;7.50;99.90
23629;DHT22;11991;57.150;-2.134;2024-02-23T13:03:39;7.50;99.90
23629;DHT22;11991;57.150;-2.134;2024-02-23T13:06:09;7.50;99.90
23629;DHT22;11991;57.150;-2.134;2024-02-23T13:08:37;7.60;99.90
23629;DHT22;11991;57.150;-2.134;2024-02-23T13:11:06;7.60;99.90
23629;DHT22;11991;57.150;-2.134;2024-02-23T13:13:33;7.70;99.90
23629;DHT22;11991;57.150;-2.134;2024-02-23T13:16:01;7.70;99.90
23629;DHT22;11991;57.150;-2.134;2024-02-23T13:18:28;7.80;99.90
23629;DHT22;11991;57.150;-2.134;2024-02-23T13:20:55;7.80;99.90
23629;DHT22;11991;57.150;-2.134;2024-02-23T13:23:23;7.90;99.90
23629;DHT22;11991;57.150;-2.134;2024-02-23T13:25:50;8.00;99.90
23629;DHT22;11991;57.150;-2.134;2024-02-23T13:28:17;8.00;99.90
23629;DHT22;11991;57.150;-2.134;2024-02-23T13:30:44;8.10;99.90
23629;DHT22;11991;57.150;-2.134;2024-02-23T13:33:11;8.10;99.90
23629;DHT22;11991;57.150;-2.134;2024-02-23T13:35:39;8.20;99.90
23629;DHT22;11991;57.150;-2.134;2024-02-23T13:38:07;8.20;99.90
23629;DHT22;11991;57.150;-2.134;2024-02-23T13:40:34;8.30;99.90
23629;DHT22;11991;57.150;-2.134;2024-02-23T13:43:01;8.40;99.90
23629;DHT22;11991;57.150;-2.134;2024-02-23T13:45:29;8.40;99.90
23629;DHT22;11991;57.150;-2.134;2024-02-23T13:48:01;8.50;99.90
23629;DHT22;11991;57.150;-2.134;2024-02-23T13:50:29;8.50;99.90
23629;DHT22;11991;57.150;-2.134;2024-02-23T13:52:57;8.60;99.90
23629;DHT22;11991;57.150;-2.134;2024-02-23T13:55:24;8.70;99.90
23629;DHT22;11991;57.150;-2.134;2024-02-23T13:57:52;8.70;99.90
23629;DHT22;11991;57.150;-2.134;2024-02-23T14:00:20;8.70;99.90
23629;DHT22;11991;57.150;-2.134;2024-02-23T14:02:47;8.70;99.90
23629;DHT22;11991;57.150;-2.134;2024-02-23T14:05:15;8.70;99.90
23629;DHT22;11991;57.150;-2.134;2024-02-23T14:07:45;8.80;99.90
23629;DHT22;11991;57.150;-2.134;2024-02-23T14:10:13;8.70;99.90
23629;DHT22;11991;57.150;-2.134;2024-02-23T14:12:41;8.80;99.90
23629;DHT22;11991;57.150;-2.134;2024-02-23T14:15:09;8.70;99.90
23629;DHT22;11991;57.150;-2.134;2024-02-23T14:17:37;8.70;99.90
23629;DHT22;11991;57.150;-2.134;2024-02-23T14:20:05;8.70;99.90
23629;DHT22;11991;57.150;-2.134;2024-02-23T14:22:33;8.70;99.90
23629;DHT22;11991;57.150;-2.134;2024-02-23T14:25:01;8.80;99.90
23629;DHT22;11991;57.150;-2.134;2024-02-23T14:27:28;8.80;99.90
23629;DHT22;11991;57.150;-2.134;2024-02-23T14:29:58;8.80;99.90
23629;DHT22;11991;57.150;-2.134;2024-02-23T14:32:25;8.90;99.90
23629;DHT22;11991;57.150;-2.134;2024-02-23T14:34:53;8.90;99.90
23629;DHT22;11991;57.150;-2.134;2024-02-23T14:37:20;8.90;99.90
23629;DHT22;11991;57.150;-2.134;2024-02-23T14:39:47;9.00;99.90
23629;DHT22;11991;57.150;-2.134;2024-02-23T14:42:16;9.00;99.90
23629;DHT22;11991;57.150;-2.134;2024-02-23T14:44:43;9.10;99.90
23629;DHT22;11991;57.150;-2.134;2024-02-23T14:47:11;9.10;99.90
23629;DHT22;11991;57.150;-2.134;2024-02-23T14:49:39;9.10;99.90
23629;DHT22;11991;57.150;-2.134;2024-02-23T14:52:06;8.90;99.90
23629;DHT22;11991;57.150;-2.134;2024-02-23T14:54:34;8.80;99.90
23629;DHT22;11991;57.150;-2.134;2024-02-23T14:57:01;8.70;99.90
23629;DHT22;11991;57.150;-2.134;2024-02-23T14:59:28;8.60;99.90
23629;DHT22;11991;57.150;-2.134;2024-02-23T15:01:55;8.50;99.90
23629;DHT22;11991;57.150;-2.134;2024-02-23T15:04:23;8.40;99.90
23629;DHT22;11991;57.150;-2.134;2024-02-23T15:06:50;8.40;99.90
23629;DHT22;11991;57.150;-2.134;2024-02-23T15:09:17;8.40;99.90
23629;DHT22;11991;57.150;-2.134;2024-02-23T15:11:45;8.40;99.90
23629;DHT22;11991;57.150;-2.134;2024-02-23T15:14:12;8.40;99.90
23629;DHT22;11991;57.150;-2.134;2024-02-23T15:16:43;8.40;99.90
23629;DHT22;11991;57.150;-2.134;2024-02-23T15:19:10;8.40;99.90
23629;DHT22;11991;57.150;-2.134;2024-02-23T15:21:37;8.40;99.90
23629;DHT22;11991;57.150;-2.134;2024-02-23T15:24:07;8.40;99.90
23629;DHT22;11991;57.150;-2.134;2024-02-23T15:26:35;8.50;99.90
23629;DHT22;11991;57.150;-2.134;2024-02-23T15:29:02;8.50;99.90
23629;DHT22;11991;57.150;-2.134;2024-02-23T15:31:30;8.60;99.90
23629;DHT22;11991;57.150;-2.134;2024-02-23T15:33:58;8.60;99.90